sensor_id;sensor_type;location;lat;lon;timestamp;P1;durP1;ratioP1;P2;durP2;ratioP2
22097;SDS011;11215;51.938;8.464;2022-12-04T00:00:06;37.17;;;19.30;;
22097;SDS011;11215;51.938;8.464;2022-12-04T00:02:33;36.37;;;19.30;;
22097;SDS011;11215;51.938;8.464;2022-12-04T00:04:59;37.90;;;19.17;;
22097;SDS011;11215;51.938;8.464;2022-12-04T00:07:26;40.27;;;21.33;;
22097;SDS011;11215;51.938;8.464;2022-12-04T00:09:51;34.47;;;18.40;;
22097;SDS011;11215;51.938;8.464;2022-12-04T00:12:17;37.10;;;18.90;;
22097;SDS011;11215;51.938;8.464;2022-12-04T00:14:43;33.50;;;18.13;;
22097;SDS011;11215;51.938;8.464;2022-12-04T00:17:08;31.97;;;18.40;;
22097;SDS011;11215;51.938;8.464;2022-12-04T00:19:34;35.60;;;18.43;;
22097;SDS011;11215;51.938;8.464;2022-12-04T00:21:59;35.63;;;18.77;;
22097;SDS011;11215;51.938;8.464;2022-12-04T00:24:25;33.60;;;16.10;;
22097;SDS011;11215;51.938;8.464;2022-12-04T00:26:51;32.47;;;17.30;;
22097;SDS011;11215;51.938;8.464;2022-12-04T00:29:16;33.00;;;18.20;;
22097;SDS011;11215;51.938;8.464;2022-12-04T00:31:43;35.47;;;18.53;;
22097;SDS011;11215;51.938;8.464;2022-12-04T00:34:08;31.67;;;17.23;;
22097;SDS011;11215;51.938;8.464;2022-12-04T00:36:34;33.27;;;17.50;;
22097;SDS011;11215;51.938;8.464;2022-12-04T00:39:02;31.80;;;17.00;;
22097;SDS011;11215;51.938;8.464;2022-12-04T00:41:28;32.13;;;18.00;;
22097;SDS011;11215;51.938;8.464;2022-12-04T00:43:56;30.17;;;16.20;;
22097;SDS011;11215;51.938;8.464;2022-12-04T00:46:21;31.47;;;18.17;;
22097;SDS011;11215;51.938;8.464;2022-12-04T00:48:47;37.33;;;19.00;;
22097;SDS011;11215;51.938;8.464;2022-12-04T00:51:14;35.83;;;18.80;;
22097;SDS011;11215;51.938;8.464;2022-12-04T00:53:44;33.63;;;17.10;;
22097;SDS011;11215;51.938;8.464;2022-12-04T00:56:18;32.97;;;17.80;;
22097;SDS011;11215;51.938;8.464;2022-12-04T00:58:46;33.90;;;18.30;;
22097;SDS011;11215;51.938;8.464;2022-12-04T01:01:16;38.23;;;18.70;;
22097;SDS011;11215;51.938;8.464;2022-12-04T01:03:43;34.07;;;18.20;;
22097;SDS011;11215;51.938;8.464;2022-12-04T01:06:19;33.47;;;17.93;;
22097;SDS011;11215;51.938;8.464;2022-12-04T01:08:50;34.13;;;18.03;;
22097;SDS011;11215;51.938;8.464;2022-12-04T01:11:17;32.87;;;16.63;;
22097;SDS011;11215;51.938;8.464;2022-12-04T01:13:44;33.93;;;16.90;;
22097;SDS011;11215;51.938;8.464;2022-12-04T01:16:17;35.43;;;18.30;;
22097;SDS011;11215;51.938;8.464;2022-12-04T01:18:53;35.50;;;18.10;;
22097;SDS011;11215;51.938;8.464;2022-12-04T01:21:22;34.93;;;17.10;;
22097;SDS011;11215;51.938;8.464;2022-12-04T01:23:48;29.80;;;16.67;;
22097;SDS011;11215;51.938;8.464;2022-12-04T01:26:13;33.57;;;17.37;;
22097;SDS011;11215;51.938;8.464;2022-12-04T01:28:39;34.73;;;17.40;;
22097;SDS011;11215;51.938;8.464;2022-12-04T01:31:07;34.63;;;16.83;;
22097;SDS011;11215;51.938;8.464;2022-12-04T01:33:38;31.03;;;16.40;;
22097;SDS011;11215;51.938;8.464;2022-12-04T01:36:06;35.13;;;18.13;;
22097;SDS011;11215;51.938;8.464;2022-12-04T01:38:34;29.47;;;16.20;;
22097;SDS011;11215;51.938;8.464;2022-12-04T01:41:00;33.17;;;17.40;;
22097;SDS011;11215;51.938;8.464;2022-12-04T01:43:26;31.27;;;16.03;;
22097;SDS011;11215;51.938;8.464;2022-12-04T01:45:54;31.10;;;17.37;;
22097;SDS011;11215;51.938;8.464;2022-12-04T01:48:32;32.20;;;16.77;;
22097;SDS011;11215;51.938;8.464;2022-12-04T01:51:06;29.50;;;16.20;;
22097;SDS011;11215;51.938;8.464;2022-12-04T01:53:37;30.13;;;16.93;;
22097;SDS011;11215;51.938;8.464;2022-12-04T01:56:06;34.93;;;17.80;;
22097;SDS011;11215;51.938;8.464;2022-12-04T01:58:33;35.27;;;18.23;;
22097;SDS011;11215;51.938;8.464;2022-12-04T02:01:05;33.57;;;17.07;;
22097;SDS011;11215;51.938;8.464;2022-12-04T02:03:32;34.17;;;17.77;;
22097;SDS011;11215;51.938;8.464;2022-12-04T02:05:58;31.37;;;17.57;;
22097;SDS011;11215;51.938;8.464;2022-12-04T02:08:24;32.10;;;16.03;;
22097;SDS011;11215;51.938;8.464;2022-12-04T02:10:54;32.40;;;17.27;;
22097;SDS011;11215;51.938;8.464;2022-12-04T02:13:35;26.80;;;14.67;;
22097;SDS011;11215;51.938;8.464;2022-12-04T02:16:10;27.37;;;14.90;;
22097;SDS011;11215;51.938;8.464;2022-12-04T02:21:50;31.23;;;14.10;;
22097;SDS011;11215;51.938;8.464;2022-12-04T02:30:07;30.57;;;16.40;;
22097;SDS011;11215;51.938;8.464;2022-12-04T02:32:39;32.60;;;16.07;;
22097;SDS011;11215;51.938;8.464;2022-12-04T02:37:42;29.53;;;15.43;;
22097;SDS011;11215;51.938;8.464;2022-12-04T02:45:39;32.13;;;15.97;;
22097;SDS011;11215;51.938;8.464;2022-12-04T02:48:32;32.20;;;15.67;;
22097;SDS011;11215;51.938;8.464;2022-12-04T02:51:04;31.73;;;16.00;;
22097;SDS011;11215;51.938;8.464;2022-12-04T02:53:33;31.90;;;15.73;;
22097;SDS011;11215;51.938;8.464;2022-12-04T02:56:02;31.00;;;15.83;;
22097;SDS011;11215;51.938;8.464;2022-12-04T02:58:52;33.47;;;15.97;;
22097;SDS011;11215;51.938;8.464;2022-12-04T03:01:29;28.20;;;14.87;;
22097;SDS011;11215;51.938;8.464;2022-12-04T03:04:04;29.50;;;15.10;;
22097;SDS011;11215;51.938;8.464;2022-12-04T03:06:39;29.97;;;14.30;;
22097;SDS011;11215;51.938;8.464;2022-12-04T03:12:22;28.70;;;13.77;;
22097;SDS011;11215;51.938;8.464;2022-12-04T03:14:51;30.50;;;15.17;;
22097;SDS011;11215;51.938;8.464;2022-12-04T03:17:36;25.77;;;14.27;;
22097;SDS011;11215;51.938;8.464;2022-12-04T03:20:10;30.77;;;16.17;;
22097;SDS011;11215;51.938;8.464;2022-12-04T03:22:40;29.87;;;15.43;;
22097;SDS011;11215;51.938;8.464;2022-12-04T03:25:07;29.87;;;14.07;;
22097;SDS011;11215;51.938;8.464;2022-12-04T03:28:18;25.20;;;13.97;;
22097;SDS011;11215;51.938;8.464;2022-12-04T03:30:29;29.10;;;15.00;;
22097;SDS011;11215;51.938;8.464;2022-12-04T03:33:02;24.80;;;13.83;;
22097;SDS011;11215;51.938;8.464;2022-12-04T03:35:46;28.33;;;14.47;;
22097;SDS011;11215;51.938;8.464;2022-12-04T03:44:19;25.67;;;12.67;;
22097;SDS011;11215;51.938;8.464;2022-12-04T03:47:17;22.43;;;12.60;;
22097;SDS011;11215;51.938;8.464;2022-12-04T03:49:53;26.50;;;13.73;;
22097;SDS011;11215;51.938;8.464;2022-12-04T03:52:29;28.00;;;13.57;;
22097;SDS011;11215;51.938;8.464;2022-12-04T03:55:03;24.27;;;13.03;;
22097;SDS011;11215;51.938;8.464;2022-12-04T03:57:38;22.40;;;12.10;;
22097;SDS011;11215;51.938;8.464;2022-12-04T04:02:43;24.23;;;12.90;;
22097;SDS011;11215;51.938;8.464;2022-12-04T04:05:15;25.13;;;12.83;;
22097;SDS011;11215;51.938;8.464;2022-12-04T04:07:44;23.87;;;12.73;;
22097;SDS011;11215;51.938;8.464;2022-12-04T04:10:14;25.97;;;13.77;;
22097;SDS011;11215;51.938;8.464;2022-12-04T04:12:43;21.93;;;12.03;;
22097;SDS011;11215;51.938;8.464;2022-12-04T04:15:35;22.93;;;11.53;;
22097;SDS011;11215;51.938;8.464;2022-12-04T04:18:23;25.60;;;12.07;;
22097;SDS011;11215;51.938;8.464;2022-12-04T04:21:10;22.47;;;11.47;;
22097;SDS011;11215;51.938;8.464;2022-12-04T04:23:56;24.10;;;12.13;;
22097;SDS011;11215;51.938;8.464;2022-12-04T04:26:41;22.77;;;11.70;;
22097;SDS011;11215;51.938;8.464;2022-12-04T04:29:10;29.43;;;13.80;;
22097;SDS011;11215;51.938;8.464;2022-12-04T04:31:41;22.00;;;12.13;;
22097;SDS011;11215;51.938;8.464;2022-12-04T04:37:30;23.47;;;11.83;;
22097;SDS011;11215;51.938;8.464;2022-12-04T04:42:49;21.80;;;12.40;;
22097;SDS011;11215;51.938;8.464;2022-12-04T04:45:22;24.03;;;11.73;;
22097;SDS011;11215;51.938;8.464;2022-12-04T04:47:59;21.03;;;11.13;;
22097;SDS011;11215;51.938;8.464;2022-12-04T04:50:39;22.33;;;11.83;;
22097;SDS011;11215;51.938;8.464;2022-12-04T04:53:14;27.10;;;12.57;;
22097;SDS011;11215;51.938;8.464;2022-12-04T04:55:46;24.10;;;12.23;;
22097;SDS011;11215;51.938;8.464;2022-12-04T04:58:14;21.97;;;11.43;;
22097;SDS011;11215;51.938;8.464;2022-12-04T05:00:44;28.37;;;13.20;;
22097;SDS011;11215;51.938;8.464;2022-12-04T05:03:23;24.67;;;11.87;;
22097;SDS011;11215;51.938;8.464;2022-12-04T05:05:49;23.53;;;12.23;;
22097;SDS011;11215;51.938;8.464;2022-12-04T05:08:15;23.17;;;12.23;;
22097;SDS011;11215;51.938;8.464;2022-12-04T05:10:41;21.83;;;11.40;;
22097;SDS011;11215;51.938;8.464;2022-12-04T05:13:07;23.37;;;11.97;;
22097;SDS011;11215;51.938;8.464;2022-12-04T05:15:38;23.53;;;12.13;;
22097;SDS011;11215;51.938;8.464;2022-12-04T05:18:04;26.40;;;11.47;;
22097;SDS011;11215;51.938;8.464;2022-12-04T05:20:30;22.00;;;11.43;;
22097;SDS011;11215;51.938;8.464;2022-12-04T05:22:56;22.57;;;10.80;;
22097;SDS011;11215;51.938;8.464;2022-12-04T05:25:21;22.23;;;10.77;;
22097;SDS011;11215;51.938;8.464;2022-12-04T05:27:47;21.33;;;11.07;;
22097;SDS011;11215;51.938;8.464;2022-12-04T05:30:13;23.30;;;11.10;;
22097;SDS011;11215;51.938;8.464;2022-12-04T05:32:39;23.40;;;11.20;;
22097;SDS011;11215;51.938;8.464;2022-12-04T05:35:08;23.07;;;11.97;;
22097;SDS011;11215;51.938;8.464;2022-12-04T05:37:37;21.63;;;11.47;;
22097;SDS011;11215;51.938;8.464;2022-12-04T05:40:04;23.03;;;11.03;;
22097;SDS011;11215;51.938;8.464;2022-12-04T05:42:30;17.27;;;9.83;;
22097;SDS011;11215;51.938;8.464;2022-12-04T05:44:59;21.67;;;11.23;;
22097;SDS011;11215;51.938;8.464;2022-12-04T05:47:24;20.30;;;10.83;;
22097;SDS011;11215;51.938;8.464;2022-12-04T05:49:50;20.43;;;10.80;;
22097;SDS011;11215;51.938;8.464;2022-12-04T05:52:16;24.57;;;11.23;;
22097;SDS011;11215;51.938;8.464;2022-12-04T05:54:41;21.67;;;10.97;;
22097;SDS011;11215;51.938;8.464;2022-12-04T05:57:10;22.47;;;10.73;;
22097;SDS011;11215;51.938;8.464;2022-12-04T05:59:36;22.10;;;10.83;;
22097;SDS011;11215;51.938;8.464;2022-12-04T06:02:01;19.50;;;10.57;;
22097;SDS011;11215;51.938;8.464;2022-12-04T06:04:27;21.83;;;10.40;;
22097;SDS011;11215;51.938;8.464;2022-12-04T06:06:53;19.33;;;10.37;;
22097;SDS011;11215;51.938;8.464;2022-12-04T06:09:19;18.27;;;10.30;;
22097;SDS011;11215;51.938;8.464;2022-12-04T06:11:45;20.30;;;9.57;;
22097;SDS011;11215;51.938;8.464;2022-12-04T06:14:12;18.57;;;10.07;;
22097;SDS011;11215;51.938;8.464;2022-12-04T06:16:39;18.17;;;9.63;;
22097;SDS011;11215;51.938;8.464;2022-12-04T06:19:17;17.97;;;9.43;;
22097;SDS011;11215;51.938;8.464;2022-12-04T06:21:45;17.97;;;9.93;;
22097;SDS011;11215;51.938;8.464;2022-12-04T06:24:12;18.70;;;10.07;;
22097;SDS011;11215;51.938;8.464;2022-12-04T06:26:40;20.30;;;9.97;;
22097;SDS011;11215;51.938;8.464;2022-12-04T06:29:06;16.13;;;9.20;;
22097;SDS011;11215;51.938;8.464;2022-12-04T06:31:31;20.53;;;9.77;;
22097;SDS011;11215;51.938;8.464;2022-12-04T06:34:00;18.10;;;9.47;;
22097;SDS011;11215;51.938;8.464;2022-12-04T06:36:25;19.27;;;10.20;;
22097;SDS011;11215;51.938;8.464;2022-12-04T06:38:52;18.03;;;9.30;;
22097;SDS011;11215;51.938;8.464;2022-12-04T06:41:19;16.63;;;9.07;;
22097;SDS011;11215;51.938;8.464;2022-12-04T06:43:46;18.17;;;10.07;;
22097;SDS011;11215;51.938;8.464;2022-12-04T06:46:31;16.20;;;8.97;;
22097;SDS011;11215;51.938;8.464;2022-12-04T06:48:58;17.50;;;9.70;;
22097;SDS011;11215;51.938;8.464;2022-12-04T06:51:26;22.60;;;10.33;;
22097;SDS011;11215;51.938;8.464;2022-12-04T06:53:51;17.60;;;8.60;;
22097;SDS011;11215;51.938;8.464;2022-12-04T06:56:19;15.60;;;9.10;;
22097;SDS011;11215;51.938;8.464;2022-12-04T06:58:46;17.47;;;9.43;;
22097;SDS011;11215;51.938;8.464;2022-12-04T07:01:14;17.53;;;9.50;;
22097;SDS011;11215;51.938;8.464;2022-12-04T07:03:41;16.77;;;9.10;;
22097;SDS011;11215;51.938;8.464;2022-12-04T07:06:14;15.00;;;9.10;;
22097;SDS011;11215;51.938;8.464;2022-12-04T07:08:43;16.40;;;9.07;;
22097;SDS011;11215;51.938;8.464;2022-12-04T07:11:11;18.77;;;9.93;;
22097;SDS011;11215;51.938;8.464;2022-12-04T07:13:37;19.07;;;9.50;;
22097;SDS011;11215;51.938;8.464;2022-12-04T07:16:03;17.83;;;9.80;;
22097;SDS011;11215;51.938;8.464;2022-12-04T07:18:30;15.60;;;8.33;;
22097;SDS011;11215;51.938;8.464;2022-12-04T07:20:57;16.40;;;9.17;;
22097;SDS011;11215;51.938;8.464;2022-12-04T07:23:23;16.10;;;8.60;;
22097;SDS011;11215;51.938;8.464;2022-12-04T07:25:49;18.93;;;8.97;;
22097;SDS011;11215;51.938;8.464;2022-12-04T07:28:15;16.67;;;9.33;;
22097;SDS011;11215;51.938;8.464;2022-12-04T07:30:40;16.27;;;8.70;;
22097;SDS011;11215;51.938;8.464;2022-12-04T07:33:06;16.20;;;8.87;;
22097;SDS011;11215;51.938;8.464;2022-12-04T07:35:32;16.53;;;9.00;;
22097;SDS011;11215;51.938;8.464;2022-12-04T07:37:57;18.47;;;9.33;;
22097;SDS011;11215;51.938;8.464;2022-12-04T07:40:26;15.50;;;9.23;;
22097;SDS011;11215;51.938;8.464;2022-12-04T07:42:51;17.80;;;9.33;;
22097;SDS011;11215;51.938;8.464;2022-12-04T07:45:17;18.23;;;9.53;;
22097;SDS011;11215;51.938;8.464;2022-12-04T07:47:43;15.77;;;8.40;;
22097;SDS011;11215;51.938;8.464;2022-12-04T07:50:08;14.93;;;8.47;;
22097;SDS011;11215;51.938;8.464;2022-12-04T07:52:37;17.13;;;9.80;;
22097;SDS011;11215;51.938;8.464;2022-12-04T07:55:07;15.57;;;9.20;;
22097;SDS011;11215;51.938;8.464;2022-12-04T07:57:33;16.27;;;9.87;;
22097;SDS011;11215;51.938;8.464;2022-12-04T07:59:58;17.33;;;9.50;;
22097;SDS011;11215;51.938;8.464;2022-12-04T08:02:24;16.77;;;9.93;;
22097;SDS011;11215;51.938;8.464;2022-12-04T08:04:50;16.17;;;9.67;;
22097;SDS011;11215;51.938;8.464;2022-12-04T08:07:16;16.97;;;9.33;;
22097;SDS011;11215;51.938;8.464;2022-12-04T08:09:42;20.17;;;9.90;;
22097;SDS011;11215;51.938;8.464;2022-12-04T08:12:08;17.53;;;10.13;;
22097;SDS011;11215;51.938;8.464;2022-12-04T08:14:34;16.77;;;10.60;;
22097;SDS011;11215;51.938;8.464;2022-12-04T08:16:59;18.07;;;10.50;;
22097;SDS011;11215;51.938;8.464;2022-12-04T08:19:25;13.47;;;7.90;;
22097;SDS011;11215;51.938;8.464;2022-12-04T08:21:52;16.03;;;9.30;;
22097;SDS011;11215;51.938;8.464;2022-12-04T08:24:19;17.47;;;9.90;;
22097;SDS011;11215;51.938;8.464;2022-12-04T08:26:44;17.43;;;10.60;;
22097;SDS011;11215;51.938;8.464;2022-12-04T08:29:10;16.50;;;9.40;;
22097;SDS011;11215;51.938;8.464;2022-12-04T08:31:36;18.23;;;10.23;;
22097;SDS011;11215;51.938;8.464;2022-12-04T08:34:09;15.70;;;10.00;;
22097;SDS011;11215;51.938;8.464;2022-12-04T08:36:34;17.23;;;10.57;;
22097;SDS011;11215;51.938;8.464;2022-12-04T08:39:00;19.93;;;11.13;;
22097;SDS011;11215;51.938;8.464;2022-12-04T08:41:26;16.13;;;9.43;;
22097;SDS011;11215;51.938;8.464;2022-12-04T08:43:53;17.03;;;10.03;;
22097;SDS011;11215;51.938;8.464;2022-12-04T08:46:19;16.77;;;10.83;;
22097;SDS011;11215;51.938;8.464;2022-12-04T08:48:46;17.37;;;10.87;;
22097;SDS011;11215;51.938;8.464;2022-12-04T08:51:13;21.60;;;12.63;;
22097;SDS011;11215;51.938;8.464;2022-12-04T08:53:44;21.47;;;11.93;;
22097;SDS011;11215;51.938;8.464;2022-12-04T08:56:10;19.97;;;12.83;;
22097;SDS011;11215;51.938;8.464;2022-12-04T08:58:36;21.83;;;13.03;;
22097;SDS011;11215;51.938;8.464;2022-12-04T09:01:05;28.43;;;15.47;;
22097;SDS011;11215;51.938;8.464;2022-12-04T09:03:33;19.20;;;11.53;;
22097;SDS011;11215;51.938;8.464;2022-12-04T09:06:00;21.10;;;12.77;;
22097;SDS011;11215;51.938;8.464;2022-12-04T09:08:26;25.83;;;14.60;;
22097;SDS011;11215;51.938;8.464;2022-12-04T09:10:52;22.83;;;13.03;;
22097;SDS011;11215;51.938;8.464;2022-12-04T09:13:17;21.47;;;12.73;;
22097;SDS011;11215;51.938;8.464;2022-12-04T09:15:43;21.63;;;12.00;;
22097;SDS011;11215;51.938;8.464;2022-12-04T09:18:10;21.70;;;12.23;;
22097;SDS011;11215;51.938;8.464;2022-12-04T09:20:37;27.90;;;16.17;;
22097;SDS011;11215;51.938;8.464;2022-12-04T09:23:03;24.97;;;14.63;;
22097;SDS011;11215;51.938;8.464;2022-12-04T09:25:29;23.93;;;13.73;;
22097;SDS011;11215;51.938;8.464;2022-12-04T09:27:55;33.60;;;18.47;;
22097;SDS011;11215;51.938;8.464;2022-12-04T09:30:21;24.50;;;14.10;;
22097;SDS011;11215;51.938;8.464;2022-12-04T09:32:46;26.10;;;14.83;;
22097;SDS011;11215;51.938;8.464;2022-12-04T09:35:12;26.97;;;14.90;;
22097;SDS011;11215;51.938;8.464;2022-12-04T09:37:38;26.17;;;14.60;;
22097;SDS011;11215;51.938;8.464;2022-12-04T09:40:04;26.27;;;14.47;;
22097;SDS011;11215;51.938;8.464;2022-12-04T09:42:44;25.67;;;14.80;;
22097;SDS011;11215;51.938;8.464;2022-12-04T09:45:22;28.57;;;16.67;;
22097;SDS011;11215;51.938;8.464;2022-12-04T09:47:54;29.23;;;15.77;;
22097;SDS011;11215;51.938;8.464;2022-12-04T09:50:42;28.87;;;17.27;;
22097;SDS011;11215;51.938;8.464;2022-12-04T09:53:19;28.90;;;15.37;;
22097;SDS011;11215;51.938;8.464;2022-12-04T09:56:05;32.80;;;17.93;;
22097;SDS011;11215;51.938;8.464;2022-12-04T10:01:17;26.60;;;13.93;;
22097;SDS011;11215;51.938;8.464;2022-12-04T10:03:48;24.37;;;13.77;;
22097;SDS011;11215;51.938;8.464;2022-12-04T10:08:48;27.33;;;14.43;;
22097;SDS011;11215;51.938;8.464;2022-12-04T10:16:25;34.57;;;19.93;;
22097;SDS011;11215;51.938;8.464;2022-12-04T10:26:58;29.57;;;18.93;;
22097;SDS011;11215;51.938;8.464;2022-12-04T10:29:30;33.80;;;18.30;;
22097;SDS011;11215;51.938;8.464;2022-12-04T10:32:02;31.10;;;18.03;;
22097;SDS011;11215;51.938;8.464;2022-12-04T10:34:51;31.13;;;17.13;;
22097;SDS011;11215;51.938;8.464;2022-12-04T10:37:18;39.47;;;22.37;;
22097;SDS011;11215;51.938;8.464;2022-12-04T10:39:47;36.53;;;21.33;;
22097;SDS011;11215;51.938;8.464;2022-12-04T10:42:32;36.40;;;19.23;;
22097;SDS011;11215;51.938;8.464;2022-12-04T10:45:05;32.23;;;18.63;;
22097;SDS011;11215;51.938;8.464;2022-12-04T10:47:31;32.97;;;17.67;;
22097;SDS011;11215;51.938;8.464;2022-12-04T10:49:59;33.17;;;19.67;;
22097;SDS011;11215;51.938;8.464;2022-12-04T10:52:27;37.37;;;19.53;;
22097;SDS011;11215;51.938;8.464;2022-12-04T10:54:54;37.47;;;20.07;;
22097;SDS011;11215;51.938;8.464;2022-12-04T10:57:32;44.43;;;23.47;;
22097;SDS011;11215;51.938;8.464;2022-12-04T11:00:22;37.83;;;19.63;;
22097;SDS011;11215;51.938;8.464;2022-12-04T11:03:08;36.17;;;20.00;;
22097;SDS011;11215;51.938;8.464;2022-12-04T11:05:52;37.90;;;21.63;;
22097;SDS011;11215;51.938;8.464;2022-12-04T11:08:20;42.43;;;23.33;;
22097;SDS011;11215;51.938;8.464;2022-12-04T11:10:59;37.03;;;18.63;;
22097;SDS011;11215;51.938;8.464;2022-12-04T11:13:30;36.47;;;19.63;;
22097;SDS011;11215;51.938;8.464;2022-12-04T11:15:56;33.70;;;18.53;;
22097;SDS011;11215;51.938;8.464;2022-12-04T11:18:23;33.23;;;17.87;;
22097;SDS011;11215;51.938;8.464;2022-12-04T11:21:04;35.30;;;19.20;;
22097;SDS011;11215;51.938;8.464;2022-12-04T11:23:42;31.30;;;18.27;;
22097;SDS011;11215;51.938;8.464;2022-12-04T11:26:10;41.23;;;22.73;;
22097;SDS011;11215;51.938;8.464;2022-12-04T11:28:37;38.93;;;20.07;;
22097;SDS011;11215;51.938;8.464;2022-12-04T11:31:05;31.03;;;17.23;;
22097;SDS011;11215;51.938;8.464;2022-12-04T11:33:35;35.53;;;20.37;;
22097;SDS011;11215;51.938;8.464;2022-12-04T11:38:44;35.87;;;18.83;;
22097;SDS011;11215;51.938;8.464;2022-12-04T11:41:24;35.83;;;18.87;;
22097;SDS011;11215;51.938;8.464;2022-12-04T11:43:52;37.10;;;18.70;;
22097;SDS011;11215;51.938;8.464;2022-12-04T11:46:30;37.03;;;18.70;;
22097;SDS011;11215;51.938;8.464;2022-12-04T11:48:58;33.77;;;17.63;;
22097;SDS011;11215;51.938;8.464;2022-12-04T11:54:33;32.13;;;18.20;;
22097;SDS011;11215;51.938;8.464;2022-12-04T12:00:18;32.40;;;16.70;;
22097;SDS011;11215;51.938;8.464;2022-12-04T12:02:52;26.63;;;15.20;;
22097;SDS011;11215;51.938;8.464;2022-12-04T12:17:03;30.20;;;16.50;;
22097;SDS011;11215;51.938;8.464;2022-12-04T12:23:07;29.10;;;15.90;;
22097;SDS011;11215;51.938;8.464;2022-12-04T12:34:44;32.90;;;17.77;;
22097;SDS011;11215;51.938;8.464;2022-12-04T12:37:20;35.37;;;19.47;;
22097;SDS011;11215;51.938;8.464;2022-12-04T12:40:11;33.63;;;17.73;;
22097;SDS011;11215;51.938;8.464;2022-12-04T12:42:42;34.93;;;18.23;;
22097;SDS011;11215;51.938;8.464;2022-12-04T12:45:19;35.07;;;18.23;;
22097;SDS011;11215;51.938;8.464;2022-12-04T12:48:15;33.00;;;18.83;;
22097;SDS011;11215;51.938;8.464;2022-12-04T12:53:54;33.63;;;18.33;;
22097;SDS011;11215;51.938;8.464;2022-12-04T12:56:32;32.40;;;18.83;;
22097;SDS011;11215;51.938;8.464;2022-12-04T12:59:02;30.40;;;17.07;;
22097;SDS011;11215;51.938;8.464;2022-12-04T13:10:18;33.17;;;18.53;;
22097;SDS011;11215;51.938;8.464;2022-12-04T13:15:21;37.00;;;19.67;;
22097;SDS011;11215;51.938;8.464;2022-12-04T13:17:51;36.73;;;19.97;;
22097;SDS011;11215;51.938;8.464;2022-12-04T13:20:21;34.33;;;18.10;;
22097;SDS011;11215;51.938;8.464;2022-12-04T13:23:08;33.80;;;18.90;;
22097;SDS011;11215;51.938;8.464;2022-12-04T13:33:56;34.60;;;18.17;;
22097;SDS011;11215;51.938;8.464;2022-12-04T13:39:49;34.50;;;17.87;;
22097;SDS011;11215;51.938;8.464;2022-12-04T13:42:33;30.23;;;17.27;;
22097;SDS011;11215;51.938;8.464;2022-12-04T13:45:00;30.20;;;16.23;;
22097;SDS011;11215;51.938;8.464;2022-12-04T13:47:32;33.87;;;17.80;;
22097;SDS011;11215;51.938;8.464;2022-12-04T13:50:33;30.17;;;17.00;;
22097;SDS011;11215;51.938;8.464;2022-12-04T13:52:52;31.27;;;18.13;;
22097;SDS011;11215;51.938;8.464;2022-12-04T13:55:37;31.53;;;17.70;;
22097;SDS011;11215;51.938;8.464;2022-12-04T14:00:36;50.10;;;27.57;;
22097;SDS011;11215;51.938;8.464;2022-12-04T14:05:57;31.80;;;18.47;;
22097;SDS011;11215;51.938;8.464;2022-12-04T14:08:29;45.17;;;23.60;;
22097;SDS011;11215;51.938;8.464;2022-12-04T14:11:15;34.30;;;19.63;;
22097;SDS011;11215;51.938;8.464;2022-12-04T14:19:03;31.97;;;18.47;;
22097;SDS011;11215;51.938;8.464;2022-12-04T14:21:39;36.03;;;18.97;;
22097;SDS011;11215;51.938;8.464;2022-12-04T14:24:16;35.40;;;20.10;;
22097;SDS011;11215;51.938;8.464;2022-12-04T14:26:54;35.17;;;17.90;;
22097;SDS011;11215;51.938;8.464;2022-12-04T14:31:56;33.50;;;18.63;;
22097;SDS011;11215;51.938;8.464;2022-12-04T14:34:25;31.23;;;19.53;;
22097;SDS011;11215;51.938;8.464;2022-12-04T14:36:57;39.30;;;20.60;;
22097;SDS011;11215;51.938;8.464;2022-12-04T14:39:26;34.87;;;19.73;;
22097;SDS011;11215;51.938;8.464;2022-12-04T14:44:49;32.00;;;17.07;;
22097;SDS011;11215;51.938;8.464;2022-12-04T14:58:45;39.30;;;21.10;;
22097;SDS011;11215;51.938;8.464;2022-12-04T15:01:28;36.27;;;20.30;;
22097;SDS011;11215;51.938;8.464;2022-12-04T15:04:05;44.30;;;22.90;;
22097;SDS011;11215;51.938;8.464;2022-12-04T15:06:39;37.70;;;20.33;;
22097;SDS011;11215;51.938;8.464;2022-12-04T15:09:12;43.00;;;23.23;;
22097;SDS011;11215;51.938;8.464;2022-12-04T15:11:59;37.57;;;19.60;;
22097;SDS011;11215;51.938;8.464;2022-12-04T15:14:56;32.27;;;17.77;;
22097;SDS011;11215;51.938;8.464;2022-12-04T15:17:25;38.13;;;20.80;;
22097;SDS011;11215;51.938;8.464;2022-12-04T15:19:50;33.93;;;18.07;;
22097;SDS011;11215;51.938;8.464;2022-12-04T15:24:47;35.10;;;17.23;;
22097;SDS011;11215;51.938;8.464;2022-12-04T15:27:14;31.60;;;17.13;;
22097;SDS011;11215;51.938;8.464;2022-12-04T15:29:42;31.07;;;17.63;;
22097;SDS011;11215;51.938;8.464;2022-12-04T15:32:12;31.27;;;17.20;;
22097;SDS011;11215;51.938;8.464;2022-12-04T15:37:18;28.83;;;15.73;;
22097;SDS011;11215;51.938;8.464;2022-12-04T15:39:46;31.13;;;17.17;;
22097;SDS011;11215;51.938;8.464;2022-12-04T15:47:25;29.30;;;15.90;;
22097;SDS011;11215;51.938;8.464;2022-12-04T15:52:47;29.97;;;16.33;;
22097;SDS011;11215;51.938;8.464;2022-12-04T15:55:18;28.43;;;15.27;;
22097;SDS011;11215;51.938;8.464;2022-12-04T15:57:51;31.50;;;15.87;;
22097;SDS011;11215;51.938;8.464;2022-12-04T16:00:26;30.93;;;17.20;;
22097;SDS011;11215;51.938;8.464;2022-12-04T16:02:58;32.20;;;16.83;;
22097;SDS011;11215;51.938;8.464;2022-12-04T16:07:54;31.33;;;16.97;;
22097;SDS011;11215;51.938;8.464;2022-12-04T16:10:31;30.03;;;16.13;;
22097;SDS011;11215;51.938;8.464;2022-12-04T16:12:59;29.13;;;16.47;;
22097;SDS011;11215;51.938;8.464;2022-12-04T16:15:32;25.50;;;15.33;;
22097;SDS011;11215;51.938;8.464;2022-12-04T16:18:09;24.43;;;14.77;;
22097;SDS011;11215;51.938;8.464;2022-12-04T16:20:37;29.70;;;16.90;;
22097;SDS011;11215;51.938;8.464;2022-12-04T16:23:04;27.47;;;14.93;;
22097;SDS011;11215;51.938;8.464;2022-12-04T16:25:30;30.47;;;15.27;;
22097;SDS011;11215;51.938;8.464;2022-12-04T16:27:56;27.10;;;14.93;;
22097;SDS011;11215;51.938;8.464;2022-12-04T16:30:23;28.30;;;16.27;;
22097;SDS011;11215;51.938;8.464;2022-12-04T16:32:49;25.70;;;14.53;;
22097;SDS011;11215;51.938;8.464;2022-12-04T16:35:17;30.50;;;15.63;;
22097;SDS011;11215;51.938;8.464;2022-12-04T16:37:43;30.47;;;16.10;;
22097;SDS011;11215;51.938;8.464;2022-12-04T16:40:11;29.23;;;16.27;;
22097;SDS011;11215;51.938;8.464;2022-12-04T16:42:38;27.87;;;15.93;;
22097;SDS011;11215;51.938;8.464;2022-12-04T16:45:25;27.23;;;14.93;;
22097;SDS011;11215;51.938;8.464;2022-12-04T16:47:53;25.03;;;13.30;;
22097;SDS011;11215;51.938;8.464;2022-12-04T16:50:20;26.20;;;14.00;;
22097;SDS011;11215;51.938;8.464;2022-12-04T16:52:45;24.93;;;14.53;;
22097;SDS011;11215;51.938;8.464;2022-12-04T16:55:23;24.80;;;15.07;;
22097;SDS011;11215;51.938;8.464;2022-12-04T16:57:55;25.83;;;15.30;;
22097;SDS011;11215;51.938;8.464;2022-12-04T17:00:20;24.53;;;13.80;;
22097;SDS011;11215;51.938;8.464;2022-12-04T17:02:46;24.33;;;14.43;;
22097;SDS011;11215;51.938;8.464;2022-12-04T17:05:22;23.03;;;13.10;;
22097;SDS011;11215;51.938;8.464;2022-12-04T17:07:53;25.13;;;14.90;;
22097;SDS011;11215;51.938;8.464;2022-12-04T17:10:19;26.03;;;14.47;;
22097;SDS011;11215;51.938;8.464;2022-12-04T17:12:46;28.30;;;16.13;;
22097;SDS011;11215;51.938;8.464;2022-12-04T17:15:12;24.93;;;14.73;;
22097;SDS011;11215;51.938;8.464;2022-12-04T17:17:38;25.67;;;14.17;;